Latest Weather Observations for Smithton

IDT60801

Issued at 7:41 am EST Monday 20 August 2018 (issued every 10 minutes, with the page automatically refreshed every 10 minutes)

About weather observations | Map of weather stations | Latest weather observations for TAS | Other Formats
Station Details ID: 091292 Name: SMITHTON AERODROME Lat: -40.83 Lon: 145.08 Height: 7.5 m
Data from the previous 72 hours. | See also: Recent months at Smithton
Date/Time
EST
Temp
°C
App
Temp
°C
Dew
Point
°C
Rel
Hum
%
Delta-T
°C
Wind Press
QNH
hPa
Press
MSL
hPa
Rain since
9am
mm
Dir  Spd
km/h
Gust
km/h
Spd
kts
Gust
kts
20/07:30am 3.8 2.4 3.8 100 0.0 CALM 0 0 0 0 1020.1 - 0.0
20/07:00am 3.7 1.6 3.7 100 0.0 SSW 4 6 2 3 1020.3 - 0.0
20/06:30am 3.8 1.7 3.8 100 0.0 SSW 4 9 2 5 1020.4 - 0.0
20/06:00am 3.5 1.0 3.5 100 0.0 SSW 6 7 3 4 1020.5 1020.5 0.0
20/05:30am 3.3 1.1 3.3 100 0.0 W 4 9 2 5 1021.0 - 0.0
20/05:00am 3.0 1.5 3.0 100 0.0 CALM 0 0 0 0 1021.1 - 0.0
20/04:30am 2.7 1.1 2.7 100 0.0 CALM 0 0 0 0 1021.3 - 0.0
20/04:00am 2.2 -0.6 2.2 100 0.0 W 6 7 3 4 1021.5 - 0.0
20/03:30am 1.8 0.1 1.7 99 0.0 CALM 0 0 0 0 1021.8 - 0.0
20/03:00am 2.1 -0.3 2.0 99 0.0 W 4 9 2 5 1022.2 1022.2 0.0
20/02:30am 2.7 1.1 2.7 100 0.0 CALM 0 0 0 0 1022.7 - 0.0
20/02:00am 2.7 -0.2 2.6 99 0.0 W 7 11 4 6 1023.1 - 0.0
20/01:30am 2.7 0.4 2.6 99 0.0 W 4 7 2 4 1023.3 - 0.0
20/01:00am 2.6 1.0 2.5 99 0.0 CALM 0 0 0 0 1023.6 - 0.0
20/12:30am 2.1 0.4 1.8 98 0.1 CALM 0 6 0 3 1023.9 - 0.0
20/12:00am 1.9 -0.6 1.5 97 0.2 S 4 9 2 5 1023.8 1023.8 0.0
 
Date/Time
EST
Temp
°C
App
Temp
°C
Dew
Point
°C
Rel
Hum
%
Delta-T
°C
Wind Press
QNH
hPa
Press
MSL
hPa
Rain since
9am
mm
Dir  Spd
km/h
Gust
km/h
Spd
kts
Gust
kts
19/11:30pm 2.2 -0.3 1.6 96 0.2 SW 4 9 2 5 1023.8 - 0.0
19/11:00pm 2.8 -1.7 2.1 95 0.3 WSW 15 17 8 9 1023.6 - 0.0
19/10:30pm 3.4 -0.3 2.5 94 0.4 SSW 11 17 6 9 1023.7 - 0.0
19/10:00pm 4.2 -0.5 3.2 93 0.4 WSW 17 20 9 11 1023.7 - 0.0
19/09:30pm 4.4 0.4 3.1 91 0.5 SW 13 17 7 9 1023.5 - 0.0
19/09:00pm 5.2 0.0 3.5 89 0.7 SW 20 26 11 14 1023.3 1023.3 0.0
19/08:30pm 5.3 0.6 3.2 86 0.9 SW 17 24 9 13 1023.4 - 0.0
19/08:00pm 5.3 0.9 2.8 84 1.0 SW 15 19 8 10 1023.2 - 0.0
19/07:30pm 5.9 0.1 2.5 79 1.4 SW 22 30 12 16 1022.9 - 0.0
19/07:00pm 5.9 0.0 2.0 76 1.6 SSW 22 28 12 15 1022.4 - 0.0
19/06:30pm 6.4 -0.5 2.5 76 1.6 SSW 28 37 15 20 1021.9 - 0.0
19/06:00pm 6.8 -0.5 2.5 74 1.8 SW 30 39 16 21 1021.3 1021.3 0.0
19/05:37pm 6.9 -0.8 2.4 73 1.9 SSW 32 50 17 27 1020.9 - 0.0
19/05:30pm 7.3 -1.4 2.2 70 2.1 SSW 37 52 20 28 1020.9 - 0.0
19/05:00pm 7.8 -0.6 3.7 75 1.8 SSW 37 50 20 27 1020.3 - 0.0
19/04:30pm 8.1 -0.7 3.4 72 2.0 SSW 39 50 21 27 1020.2 - 0.0
19/04:00pm 8.7 0.0 4.1 73 2.0 SSW 39 57 21 31 1020.3 - 0.0
19/03:30pm 8.9 -1.8 2.3 63 2.8 SSW 48 72 26 39 1019.9 - 0.0
19/03:03pm 9.7 0.3 2.3 60 3.1 SSW 41 61 22 33 1019.4 - 0.0
19/03:00pm 10.2 1.0 3.5 63 2.9 SSW 41 56 22 30 1019.4 1019.4 0.0
19/02:35pm 9.9 1.1 3.4 64 2.8 SSW 39 57 21 31 1019.0 - 0.0
19/02:30pm 9.7 1.0 4.3 69 2.4 SSW 39 54 21 29 1019.0 - 0.0
19/02:00pm 9.8 -1.4 4.2 68 2.5 SSW 52 70 28 38 1018.8 - 0.0
19/01:30pm 10.3 -1.5 2.9 60 3.2 SSW 54 72 29 39 1018.1 - 0.0
19/01:00pm 9.9 -0.6 3.9 66 2.6 SSW 48 69 26 37 1018.0 - 0.0
19/12:30pm 9.9 -0.5 4.3 68 2.5 SSW 48 72 26 39 1018.0 - 0.0
19/12:00pm 9.2 -1.9 4.6 73 2.0 SSW 52 70 28 38 1018.0 1018.0 0.0
19/11:36am 9.3 -2.2 4.3 71 2.2 SSW 54 76 29 41 1017.6 - 0.0
19/11:30am 9.4 -1.6 4.8 73 2.1 SSW 52 69 28 37 1017.6 - 0.0
19/11:00am 9.0 -2.5 4.6 74 1.9 SSW 54 74 29 40 1017.1 - 0.0
19/10:44am 8.8 -1.6 4.0 72 2.1 SSW 48 67 26 36 1016.9 - 0.0
19/10:30am 8.9 -1.9 4.1 72 2.1 SSW 50 65 27 35 1016.6 - 0.0
19/10:01am 8.3 -2.6 3.6 72 2.0 SSW 50 74 27 40 1016.1 - 0.0
19/10:00am 8.4 -2.5 3.7 72 2.0 SSW 50 67 27 36 1016.0 - 0.0
19/09:30am 7.8 -3.0 4.2 78 1.6 SSW 50 69 27 37 1015.5 - 0.0
19/09:05am 7.6 -3.7 3.6 76 1.7 SSW 52 72 28 39 1014.5 - 0.0
19/09:00am 7.5 -3.3 4.1 79 1.5 SSW 50 67 27 36 1014.5 1014.5 17.6
19/08:30am 6.0 -3.2 5.6 97 0.2 SSW 43 61 23 33 1013.7 - 17.6
19/08:28am 6.0 -2.8 5.6 97 0.2 SW 41 59 22 32 1013.8 - 17.6
19/08:00am 5.4 -3.0 5.4 100 0.0 SW 39 50 21 27 1013.5 - 17.6
19/07:30am 5.5 -5.4 5.5 100 0.0 SSW 52 80 28 43 1013.7 - 17.0
19/07:28am 5.6 -5.7 5.6 100 0.0 SSW 54 82 29 44 1013.8 - 17.0
19/07:01am 5.7 -5.6 5.6 99 0.0 SSW 54 74 29 40 1011.8 - 16.0
19/07:00am 5.7 -5.6 5.6 99 0.0 SSW 54 70 29 38 1011.9 - 16.0
19/06:58am 5.6 -5.3 5.5 99 0.0 SSW 52 70 28 38 1011.8 - 16.0
19/06:30am 5.9 -3.8 5.9 100 0.0 SSW 46 59 25 32 1011.3 - 15.6
19/06:00am 6.3 -2.0 6.3 100 0.0 SW 39 57 21 31 1010.3 1010.3 15.4
19/05:40am 6.2 -1.7 6.2 100 0.0 SSW 37 57 20 31 1010.4 - 15.0
19/05:30am 6.4 -1.5 6.4 100 0.0 SSW 37 46 20 25 1010.2 - 14.8
19/05:00am 6.6 -3.7 6.6 100 0.0 SW 50 70 27 38 1009.3 - 14.2
19/04:33am 6.5 -2.7 6.5 100 0.0 SW 44 65 24 35 1008.4 - 14.0
19/04:30am 6.3 -2.7 6.3 100 0.0 SW 43 57 23 31 1008.4 - 14.0
19/04:01am 6.6 -2.4 6.6 100 0.0 SW 43 61 23 33 1007.9 - 13.8
19/04:00am 6.6 -2.5 6.6 100 0.0 SW 44 61 24 33 1008.0 - 13.6
19/03:30am 6.7 -1.1 6.7 100 0.0 SSW 37 57 20 31 1007.9 - 13.4
19/03:29am 6.6 -1.2 6.6 100 0.0 SSW 37 57 20 31 1007.9 - 13.2
19/03:00am 6.9 0.1 6.9 100 0.0 SW 32 52 17 28 1007.4 1007.4 11.8
19/02:30am 6.2 -2.1 6.2 100 0.0 SSW 39 57 21 31 1007.4 - 11.0
19/02:12am 6.0 -0.6 6.0 100 0.0 SW 30 48 16 26 1007.6 - 10.2
19/02:00am 6.2 0.4 6.1 99 0.0 SW 26 35 14 19 1007.6 - 9.6
19/01:30am 6.4 -1.6 5.8 96 0.3 SW 37 54 20 29 1007.0 - 8.2
19/01:17am 6.6 0.4 6.2 97 0.2 SW 28 46 15 25 1006.9 - 7.8
19/01:00am 6.0 1.4 5.7 98 0.1 WSW 19 22 10 12 1006.8 - 7.8
19/12:30am 5.1 1.5 4.8 98 0.1 WSW 13 19 7 10 1006.5 - 7.2
19/12:00am 5.5 1.9 5.2 98 0.1 W 13 20 7 11 1006.6 1006.6 6.4
 
Date/Time
EST
Temp
°C
App
Temp
°C
Dew
Point
°C
Rel
Hum
%
Delta-T
°C
Wind Press
QNH
hPa
Press
MSL
hPa
Rain since
9am
mm
Dir  Spd
km/h
Gust
km/h
Spd
kts
Gust
kts
18/11:30pm 5.5 1.2 5.1 97 0.2 SW 17 22 9 12 1006.0 - 6.0
18/11:00pm 5.5 0.8 5.1 97 0.2 SW 19 22 10 12 1005.8 - 5.6
18/10:30pm 5.7 1.4 5.3 97 0.2 SSW 17 22 9 12 1005.7 - 5.0
18/10:00pm 5.5 2.7 5.1 97 0.2 SSW 9 15 5 8 1005.4 - 4.2
18/09:30pm 5.7 2.5 5.1 96 0.3 SW 11 15 6 8 1004.9 - 4.2
18/09:00pm 6.0 1.3 5.3 95 0.3 WSW 19 22 10 12 1004.6 1004.6 4.0
18/08:30pm 6.2 0.2 5.3 94 0.4 WSW 26 32 14 17 1004.0 - 4.0
18/08:00pm 5.9 0.2 5.0 94 0.4 WSW 24 33 13 18 1003.6 - 3.8
18/07:53pm 6.1 -0.6 5.4 95 0.3 WSW 30 48 16 26 1003.6 - 3.8
18/07:46pm 6.1 -1.5 5.7 97 0.2 WSW 35 48 19 26 1003.6 - 3.8
18/07:30pm 5.3 1.6 4.6 95 0.3 WSW 13 17 7 9 1003.3 - 3.6
18/07:00pm 6.2 -0.2 5.2 93 0.4 SW 28 41 15 22 1003.0 - 3.6
18/06:30pm 6.3 -0.4 5.4 94 0.4 WSW 30 41 16 22 1002.6 - 3.4
18/06:09pm 6.6 -0.8 5.2 91 0.6 WSW 33 41 18 22 1002.2 - 2.8
18/06:00pm 6.2 2.2 4.8 91 0.6 W 15 20 8 11 1002.0 1002.0 2.4
18/05:30pm 6.6 2.2 4.6 87 0.9 W 17 22 9 12 1001.6 - 2.4
18/05:00pm 7.4 2.5 4.9 84 1.1 W 20 26 11 14 1001.5 - 2.4
18/04:30pm 7.9 1.6 3.9 76 1.7 W 26 33 14 18 1001.5 - 2.4
18/04:09pm 8.3 0.7 3.8 73 1.9 W 33 52 18 28 1001.3 - 2.4
18/04:00pm 8.7 2.3 5.1 78 1.6 W 28 35 15 19 1001.3 - 2.4
18/03:30pm 9.5 2.6 4.7 72 2.1 W 30 39 16 21 1000.7 - 2.4
18/03:00pm 10.1 5.5 6.4 78 1.7 W 20 30 11 16 1000.6 1000.6 2.4
18/02:30pm 9.9 4.8 6.1 77 1.8 W 22 28 12 15 1000.7 - 2.4
18/02:00pm 9.6 4.2 6.5 81 1.4 W 24 32 13 17 1000.8 - 2.4
18/01:30pm 9.7 4.6 6.1 78 1.7 W 22 30 12 16 1000.7 - 2.2
18/01:00pm 10.4 4.6 6.2 75 2.0 W 26 35 14 19 1000.8 - 2.2
18/12:30pm 8.1 1.5 6.1 87 0.9 W 30 43 16 23 1001.1 - 2.2
18/12:00pm 8.3 1.4 6.4 88 0.9 WSW 32 46 17 25 1001.1 1001.1 2.2
18/11:46am 8.2 0.3 6.0 86 1.0 W 37 46 20 25 1001.3 - 2.0
18/11:30am 8.6 5.8 7.1 90 0.7 WNW 11 17 6 9 1001.2 - 1.8
18/11:00am 7.9 3.5 6.7 92 0.6 WNW 19 24 10 13 1001.6 - 1.8
18/10:30am 8.0 3.6 7.2 95 0.4 W 20 26 11 14 1002.0 - 1.8
18/10:00am 6.8 -0.8 5.7 93 0.5 WNW 35 44 19 24 1002.1 - 1.2
18/09:56am 7.1 -0.5 5.7 91 0.6 WNW 35 41 19 22 1002.2 - 0.8
18/09:30am 8.8 6.2 7.9 94 0.4 WNW 11 19 6 10 1001.7 - 0.0
18/09:00am 7.1 4.2 6.4 95 0.3 WSW 11 17 6 9 1002.3 1002.3 24.0
18/08:42am 6.3 -0.9 4.8 90 0.7 W 32 50 17 27 1002.6 - 23.8
18/08:37am 6.8 -1.8 4.8 87 0.9 WSW 39 50 21 27 1002.7 - 22.8
18/08:30am 8.7 7.2 7.0 89 0.8 W 4 9 2 5 1001.9 - 21.2
18/08:00am 7.2 3.7 5.3 88 0.8 WSW 13 17 7 9 1002.1 - 21.2
18/07:30am 6.0 2.3 4.5 90 0.6 W 13 15 7 8 1002.0 - 21.2
18/07:00am 6.4 2.3 4.6 88 0.8 W 15 19 8 10 1001.9 - 21.2
18/06:30am 6.7 2.0 5.3 91 0.6 W 19 22 10 12 1001.8 - 21.2
18/06:00am 6.0 2.4 5.1 94 0.4 W 13 20 7 11 1001.7 1001.7 20.8
18/05:30am 6.1 2.3 5.7 97 0.2 W 15 17 8 9 1001.3 - 20.8
18/05:00am 6.0 2.1 5.3 95 0.3 WSW 15 17 8 9 1001.1 - 20.8
18/04:30am 6.8 3.0 5.9 94 0.4 W 15 20 8 11 1001.2 - 20.8
18/04:00am 7.4 2.4 6.3 93 0.5 W 22 30 12 16 1000.9 - 20.8
18/03:50am 7.5 1.1 6.9 96 0.3 W 30 48 16 26 1000.8 - 20.8
18/03:43am 7.4 -0.3 7.3 99 0.0 W 37 48 20 26 1000.9 - 20.8
18/03:30am 6.4 3.8 6.1 98 0.1 WSW 9 11 5 6 1000.7 - 20.8
18/03:00am 7.4 3.9 7.1 98 0.1 WSW 15 19 8 10 1001.0 1001.0 20.8
18/02:30am 8.2 3.5 7.9 98 0.1 WSW 22 30 12 16 1001.2 - 20.8
18/02:00am 8.3 4.1 8.3 100 0.0 W 20 26 11 14 1001.0 - 20.8
18/01:30am 8.4 4.2 8.4 100 0.0 WSW 20 32 11 17 1000.9 - 20.6
18/01:00am 8.5 6.5 8.5 100 0.0 W 9 11 5 6 1000.6 - 19.2
18/12:30am 8.5 6.8 8.4 99 0.0 W 7 17 4 9 1000.1 - 19.0
18/12:00am 8.6 2.9 8.3 98 0.1 W 28 35 15 19 1001.0 1001.0 18.2
 
Date/Time
EST
Temp
°C
App
Temp
°C
Dew
Point
°C
Rel
Hum
%
Delta-T
°C
Wind Press
QNH
hPa
Press
MSL
hPa
Rain since
9am
mm
Dir  Spd
km/h
Gust
km/h
Spd
kts
Gust
kts
17/11:30pm 9.1 2.8 8.8 98 0.1 W 32 46 17 25 1000.5 - 17.6
17/11:16pm 9.5 2.4 9.4 99 0.0 W 37 56 20 30 1000.3 - 17.4
17/11:12pm 9.9 4.6 9.9 100 0.0 NW 28 56 15 30 1000.3 - 17.2
17/11:00pm 10.1 5.2 9.9 99 0.1 NW 26 39 14 21 1000.6 - 15.6
17/10:30pm 10.2 6.5 10.2 100 0.0 NW 20 26 11 14 1000.9 - 14.4
17/10:00pm 10.3 4.7 10.1 99 0.1 NW 30 43 16 23 1001.4 - 14.2
17/09:33pm 11.0 5.3 11.0 100 0.0 NW 32 56 17 30 1001.3 - 13.6
17/09:30pm 11.0 6.0 11.0 100 0.0 NW 28 35 15 19 1001.3 - 13.6
17/09:00pm 10.7 5.6 10.5 99 0.1 NNW 28 37 15 20 1001.5 1001.5 8.6
17/08:30pm 11.1 6.8 10.8 98 0.2 NNW 24 35 13 19 1002.2 - 7.6
17/08:00pm 11.5 6.0 10.6 94 0.5 NNW 30 43 16 23 1002.5 - 5.8
17/07:30pm 11.9 6.4 10.5 91 0.7 N 30 44 16 24 1002.3 - 5.6
17/07:00pm 11.7 6.3 10.8 94 0.5 NNW 30 43 16 23 1003.0 - 5.6
17/06:30pm 11.8 6.3 10.5 92 0.7 NNW 30 41 16 22 1003.2 - 5.4
17/06:00pm 11.5 6.8 10.7 95 0.4 NNW 26 35 14 19 1003.5 1003.5 5.4
17/05:30pm 11.4 7.5 10.9 97 0.3 NNW 22 28 12 15 1003.9 - 4.6
17/05:00pm 11.5 7.3 11.0 97 0.3 NNW 24 35 13 19 1004.1 - 4.2
17/04:30pm 11.5 6.0 10.4 93 0.6 NNW 30 46 16 25 1004.4 - 4.2
17/04:08pm 12.1 6.9 10.2 88 1.0 NW 28 48 15 26 1004.5 - 4.2
17/04:00pm 12.6 6.5 9.6 82 1.5 NW 32 39 17 21 1004.4 - 4.2
17/03:30pm 12.7 7.3 9.5 81 1.6 NW 28 39 15 21 1004.8 - 4.2
17/03:00pm 13.3 7.1 9.4 77 2.0 NW 32 48 17 26 1005.2 1005.2 4.2
17/02:59pm 13.6 8.0 10.0 79 1.9 NW 30 48 16 26 1005.2 - 4.2
17/02:30pm 13.1 5.7 9.7 80 1.7 NW 39 52 21 28 1005.3 - 4.2
17/02:20pm 13.1 7.4 9.9 81 1.6 NW 30 48 16 26 1005.4 - 4.2
17/02:00pm 12.8 6.6 10.0 83 1.4 NW 33 46 18 25 1005.5 - 4.0
17/01:30pm 13.6 7.7 11.1 85 1.3 NW 33 50 18 27 1005.9 - 4.0
17/01:24pm 13.2 7.7 10.7 85 1.3 NW 30 50 16 27 1005.9 - 4.0
17/01:00pm 12.8 6.6 10.2 84 1.3 NW 33 46 18 25 1006.2 - 4.0
17/12:30pm 12.5 7.2 11.2 92 0.7 NW 30 44 16 24 1006.5 - 4.0
17/12:00pm 10.7 5.9 10.4 98 0.2 WNW 26 33 14 18 1007.1 1007.1 2.8
17/11:30am 11.3 7.5 11.1 99 0.1 NW 22 32 12 17 1007.8 - 1.0
17/11:00am 10.9 6.9 10.4 97 0.3 NW 22 28 12 15 1008.0 - 0.4
17/10:30am 10.9 6.5 10.4 97 0.3 NNW 24 37 13 20 1008.1 - 0.4
17/10:00am 10.5 6.0 10.2 98 0.2 NW 24 35 13 19 1008.3 - 0.2
17/09:30am 10.5 7.4 10.3 99 0.1 NNW 17 26 9 14 1008.3 - 0.2
17/09:00am 10.3 8.3 10.3 100 0.0 N 11 17 6 9 1008.5 1008.5 1.4
17/08:30am 7.8 5.6 7.8 100 0.0 NNE 9 11 5 6 1008.9 - 1.4
17/08:00am 6.0 3.0 6.0 100 0.0 N 11 13 6 7 1008.7 - 1.4

Other Formats:

Comma delimited format used in spreadsheet applications
http://www.bom.gov.au/fwo/IDT60801/IDT60801.94953.axf

JavaScript Object Notation format (JSON) in row-major order
http://www.bom.gov.au/fwo/IDT60801/IDT60801.94953.json